createdAt,value
2023-04-22T00:00:57.554Z,9.062
2023-04-22T00:03:57.722Z,9.187
2023-04-22T00:06:57.119Z,9.625
2023-04-22T00:09:57.900Z,9.875
2023-04-22T00:12:57.036Z,9.875
2023-04-22T00:15:57.761Z,9.5
2023-04-22T00:18:57.011Z,9.25
2023-04-22T00:21:57.029Z,9.25
2023-04-22T00:24:57.199Z,9.437
2023-04-22T00:27:57.815Z,9.562
2023-04-22T00:30:57.542Z,9.562
2023-04-22T00:33:56.824Z,9.562
2023-04-22T00:36:57.727Z,9.25
2023-04-22T00:39:57.071Z,9.125
2023-04-22T00:42:57.566Z,9.125
2023-04-22T00:45:56.739Z,9.187
2023-04-22T00:48:57.467Z,9.187
2023-04-22T00:51:56.885Z,8.75
2023-04-22T00:54:57.028Z,8.5
2023-04-22T00:57:57.542Z,8.375
2023-04-22T01:00:57.864Z,8.25
2023-04-22T01:03:57.514Z,8.062
2023-04-22T01:06:56.933Z,8.125
2023-04-22T01:09:57.181Z,8.5
2023-04-22T01:12:56.978Z,8.812
2023-04-22T01:15:58.049Z,9.062
2023-04-22T01:18:57.279Z,9.0
2023-04-22T01:21:57.868Z,9.062
2023-04-22T01:24:57.405Z,9.625
2023-04-22T01:27:57.737Z,9.812
2023-04-22T01:30:57.093Z,9.687
2023-04-22T01:33:57.796Z,9.687
2023-04-22T01:36:57.497Z,9.625
2023-04-22T01:39:57.020Z,9.937
2023-04-22T01:42:57.110Z,9.75
2023-04-22T01:45:57.764Z,9.75
2023-04-22T01:48:57.216Z,8.937
2023-04-22T01:51:56.830Z,8.687
2023-04-22T01:54:57.610Z,8.562
2023-04-22T01:57:57.338Z,8.562
2023-04-22T02:00:58.321Z,8.5
2023-04-22T02:03:57.565Z,8.5
2023-04-22T02:06:56.870Z,8.312
2023-04-22T02:09:57.579Z,8.312
2023-04-22T02:12:57.361Z,8.312
2023-04-22T02:15:57.069Z,8.187
2023-04-22T02:18:57.681Z,8.437
2023-04-22T02:21:57.327Z,8.5
2023-04-22T02:24:57.336Z,8.5
2023-04-22T02:27:57.038Z,8.937
2023-04-22T02:30:57.609Z,8.687
2023-04-22T02:33:57.261Z,9.0
2023-04-22T02:36:56.942Z,9.062
2023-04-22T02:39:57.377Z,9.062
2023-04-22T02:42:57.691Z,9.062
2023-04-22T02:45:57.144Z,9.062
2023-04-22T02:48:57.362Z,9.187
2023-04-22T02:51:57.531Z,9.25
2023-04-22T02:54:56.930Z,9.25
2023-04-22T02:57:57.274Z,9.25
2023-04-22T03:00:57.728Z,9.0
2023-04-22T03:03:57.448Z,9.062
2023-04-22T03:06:56.867Z,9.312
2023-04-22T03:09:57.387Z,9.312
2023-04-22T03:12:57.542Z,9.312
2023-04-22T03:15:57.364Z,9.5
2023-04-22T03:18:56.634Z,9.5
2023-04-22T03:21:57.459Z,9.375
2023-04-22T03:24:57.409Z,9.375
2023-04-22T03:27:57.223Z,9.187
2023-04-22T03:30:57.430Z,9.312
2023-04-22T03:33:57.656Z,9.25
2023-04-22T03:36:57.336Z,9.25
2023-04-22T03:39:57.521Z,9.187
2023-04-22T03:42:57.714Z,9.25
2023-04-22T03:45:57.264Z,9.25
2023-04-22T03:48:57.300Z,9.125
2023-04-22T03:51:57.037Z,9.0
2023-04-22T03:54:56.981Z,9.0
2023-04-22T03:57:58.015Z,8.562
2023-04-22T04:00:57.412Z,8.562
2023-04-22T04:03:57.943Z,8.562
2023-04-22T04:06:57.790Z,8.625
2023-04-22T04:09:58.070Z,8.812
2023-04-22T04:12:57.308Z,8.875
2023-04-22T04:15:57.033Z,9.0
2023-04-22T04:18:57.320Z,8.937
2023-04-22T04:21:57.522Z,8.875
2023-04-22T04:24:57.556Z,8.875
2023-04-22T04:27:57.290Z,8.812
2023-04-22T04:30:56.977Z,8.812
2023-04-22T04:33:57.565Z,8.687
2023-04-22T04:36:57.452Z,8.687
2023-04-22T04:39:57.311Z,8.562
2023-04-22T04:42:57.379Z,8.625
2023-04-22T04:45:58.110Z,8.625
2023-04-22T04:48:57.564Z,8.562
2023-04-22T04:51:56.540Z,8.625
2023-04-22T04:54:57.302Z,9.0
2023-04-22T04:57:57.149Z,9.125
2023-04-22T05:00:57.438Z,9.125
2023-04-22T05:03:57.331Z,9.125
2023-04-22T05:06:57.127Z,9.25
2023-04-22T05:09:57.323Z,9.25
2023-04-22T05:12:56.954Z,9.25
2023-04-22T05:15:57.364Z,9.25
2023-04-22T05:18:56.948Z,9.437
2023-04-22T05:21:57.543Z,9.562
2023-04-22T05:24:57.696Z,9.625
2023-04-22T05:27:57.556Z,9.812
2023-04-22T05:30:57.168Z,9.812
2023-04-22T05:33:56.943Z,9.687
2023-04-22T05:36:57.682Z,9.875
2023-04-22T05:39:57.212Z,10.0
2023-04-22T05:42:57.421Z,10.062
2023-04-22T05:45:57.659Z,10.062
2023-04-22T05:48:57.797Z,10.125
2023-04-22T05:51:57.516Z,10.125
2023-04-22T05:54:57.569Z,10.25
2023-04-22T05:57:56.844Z,10.375
2023-04-22T06:00:57.110Z,10.312
2023-04-22T06:03:58.027Z,10.312
2023-04-22T06:06:56.819Z,10.437
2023-04-22T06:10:04.004Z,10.437
2023-04-22T06:12:57.306Z,10.437
2023-04-22T06:15:57.197Z,10.437
2023-04-22T06:18:57.635Z,10.562
2023-04-22T06:21:57.517Z,10.625
2023-04-22T06:24:57.058Z,10.687
2023-04-22T06:27:57.696Z,10.75
2023-04-22T06:30:57.876Z,10.75
2023-04-22T06:33:57.815Z,10.937
2023-04-22T06:36:57.377Z,11.062
2023-04-22T06:39:57.193Z,11.187
2023-04-22T06:42:57.797Z,11.25
2023-04-22T06:45:57.933Z,11.437
2023-04-22T06:48:57.005Z,11.437
2023-04-22T06:51:56.975Z,11.625
2023-04-22T06:54:57.279Z,11.75
2023-04-22T06:57:57.452Z,11.875
2023-04-22T07:00:57.133Z,11.812
2023-04-22T07:03:58.007Z,12.125
2023-04-22T07:06:57.315Z,12.062
2023-04-22T07:09:57.549Z,12.25
2023-04-22T07:12:56.952Z,12.25
2023-04-22T07:15:57.410Z,12.25
2023-04-22T07:18:57.560Z,12.75
2023-04-22T07:21:57.606Z,13.0
2023-04-22T07:24:57.120Z,13.0
2023-04-22T07:27:58.084Z,13.312
2023-04-22T07:30:57.936Z,13.375
2023-04-22T07:33:57.000Z,13.687
2023-04-22T07:36:57.399Z,13.687
2023-04-22T07:39:57.763Z,14.375
2023-04-22T07:42:57.795Z,15.0
2023-04-22T07:45:57.497Z,15.062
2023-04-22T07:48:57.880Z,14.875
2023-04-22T07:51:57.647Z,14.687
2023-04-22T07:54:57.622Z,14.687
2023-04-22T07:57:56.967Z,14.562
2023-04-22T08:00:57.826Z,14.75
2023-04-22T08:03:57.956Z,14.5
2023-04-22T08:06:57.754Z,14.625
2023-04-22T08:09:57.542Z,15.125
2023-04-22T08:12:57.041Z,15.062
2023-04-22T08:15:57.800Z,15.0
2023-04-22T08:18:57.262Z,15.0
2023-04-22T08:21:57.415Z,14.875
2023-04-22T08:24:56.932Z,14.875
2023-04-22T08:27:57.348Z,15.312
2023-04-22T08:30:57.238Z,15.5
2023-04-22T08:33:57.271Z,16.187
2023-04-22T08:36:57.055Z,15.75
2023-04-22T08:39:57.558Z,16.312
2023-04-22T08:42:57.496Z,17.0
2023-04-22T08:45:57.658Z,18.062
2023-04-22T08:48:57.181Z,17.187
2023-04-22T08:51:57.062Z,18.375
2023-04-22T08:54:57.662Z,18.562
2023-04-22T08:57:57.095Z,18.562
2023-04-22T09:00:57.142Z,18.562
2023-04-22T09:03:57.114Z,17.125
2023-04-22T09:06:57.628Z,18.125
2023-04-22T09:09:57.822Z,17.875
2023-04-22T09:12:57.781Z,18.437
2023-04-22T09:15:59.803Z,19.25
2023-04-22T09:18:57.145Z,19.25
2023-04-22T09:21:57.600Z,18.562
2023-04-22T09:24:57.431Z,18.437
2023-04-22T09:27:57.037Z,19.0
2023-04-22T09:30:57.816Z,18.375
2023-04-22T09:33:57.486Z,18.937
2023-04-22T09:36:56.706Z,18.875
2023-04-22T09:39:57.711Z,19.562
2023-04-22T09:42:56.880Z,18.937
2023-04-22T09:45:57.523Z,18.562
2023-04-22T09:48:57.417Z,18.75
2023-04-22T09:51:57.356Z,18.125
2023-04-22T09:54:57.689Z,18.437
2023-04-22T09:57:57.894Z,18.437
2023-04-22T10:00:57.791Z,18.375
2023-04-22T10:03:57.028Z,18.562
2023-04-22T10:06:56.770Z,18.625
2023-04-22T10:09:57.669Z,18.125
2023-04-22T10:12:56.848Z,18.062
2023-04-22T10:15:58.072Z,18.25
2023-04-22T10:18:57.034Z,18.625
2023-04-22T10:21:57.363Z,18.625
2023-04-22T10:24:56.740Z,18.687
2023-04-22T10:27:57.442Z,18.875
2023-04-22T10:30:57.472Z,18.875
2023-04-22T10:33:56.882Z,18.687
2023-04-22T10:36:57.721Z,18.5
2023-04-22T10:39:57.557Z,18.437
2023-04-22T10:42:57.029Z,18.437
2023-04-22T10:45:57.484Z,18.562
2023-04-22T10:48:56.853Z,18.812
2023-04-22T10:51:57.339Z,18.562
2023-04-22T10:54:57.241Z,18.625
2023-04-22T10:57:56.849Z,18.625
2023-04-22T11:00:57.779Z,18.625
2023-04-22T11:04:15.626Z,18.937
2023-04-22T11:06:57.627Z,19.187
2023-04-22T11:09:57.109Z,19.125
2023-04-22T11:12:57.622Z,19.812
2023-04-22T11:15:57.550Z,19.812
2023-04-22T11:18:57.224Z,20.312
2023-04-22T11:21:57.826Z,19.812
2023-04-22T11:24:58.038Z,20.562
2023-04-22T11:27:57.947Z,21.187
2023-04-22T11:30:57.243Z,21.187
2023-04-22T11:33:57.646Z,21.0
2023-04-22T11:36:57.178Z,20.687
2023-04-22T11:40:21.008Z,20.687
2023-04-22T11:42:57.063Z,20.687
2023-04-22T11:45:57.426Z,20.5
2023-04-22T11:48:57.593Z,20.437
2023-04-22T11:51:56.797Z,20.437
2023-04-22T11:54:57.258Z,20.25
2023-04-22T11:57:57.740Z,20.5
2023-04-22T12:00:58.052Z,20.5
2023-04-22T12:03:57.171Z,21.812
2023-04-22T12:06:57.762Z,21.5
2023-04-22T12:09:57.327Z,21.5
2023-04-22T12:12:57.473Z,21.0
2023-04-22T12:15:57.695Z,21.062
2023-04-22T12:18:57.407Z,21.5
2023-04-22T12:21:57.025Z,21.25
2023-04-22T12:24:57.013Z,21.437
2023-04-22T12:27:57.727Z,21.625
2023-04-22T12:30:58.199Z,21.125
2023-04-22T12:33:57.861Z,21.25
2023-04-22T12:36:57.358Z,21.437
2023-04-22T12:39:57.799Z,22.0
2023-04-22T12:42:57.803Z,21.375
2023-04-22T12:45:58.154Z,21.375
2023-04-22T12:48:57.025Z,20.875
2023-04-22T12:51:57.619Z,20.75
2023-04-22T12:54:57.724Z,20.625
2023-04-22T12:57:57.132Z,21.062
2023-04-22T13:00:57.568Z,21.062
2023-04-22T13:03:57.101Z,21.062
2023-04-22T13:06:57.401Z,20.437
2023-04-22T13:09:57.713Z,20.437
2023-04-22T13:13:09.747Z,20.437
2023-04-22T13:15:57.530Z,20.312
2023-04-22T13:18:57.564Z,20.25
2023-04-22T13:21:57.101Z,20.25
2023-04-22T13:24:57.175Z,20.625
2023-04-22T13:27:58.069Z,20.812
2023-04-22T13:30:57.208Z,20.625
2023-04-22T13:33:57.313Z,21.625
2023-04-22T13:36:56.998Z,22.0
2023-04-22T13:39:57.599Z,21.937
2023-04-22T13:42:57.475Z,21.5
2023-04-22T13:45:57.557Z,20.687
2023-04-22T13:48:56.922Z,20.312
2023-04-22T13:51:57.737Z,20.312
2023-04-22T13:54:57.050Z,20.312
2023-04-22T13:57:57.925Z,20.312
2023-04-22T14:00:56.926Z,20.062
2023-04-22T14:03:57.827Z,20.062
2023-04-22T14:06:57.268Z,20.125
2023-04-22T14:09:57.837Z,20.062
2023-04-22T14:12:57.125Z,20.375
2023-04-22T14:15:56.723Z,20.562
2023-04-22T14:18:57.624Z,20.5
2023-04-22T14:21:57.098Z,20.437
2023-04-22T14:24:57.320Z,20.625
2023-04-22T14:27:56.743Z,20.125
2023-04-22T14:30:58.259Z,20.125
2023-04-22T14:33:57.333Z,20.125
2023-04-22T14:36:57.855Z,20.125
2023-04-22T14:39:57.423Z,20.375
2023-04-22T14:42:57.453Z,20.437
2023-04-22T14:45:57.974Z,20.687
2023-04-22T14:48:57.658Z,20.312
2023-04-22T14:51:57.111Z,20.312
2023-04-22T14:54:57.751Z,20.312
2023-04-22T14:57:57.861Z,19.812
2023-04-22T15:00:58.135Z,19.812
2023-04-22T15:03:57.359Z,19.562
2023-04-22T15:06:56.976Z,19.437
2023-04-22T15:09:56.799Z,19.375
2023-04-22T15:12:57.405Z,19.375
2023-04-22T15:15:56.743Z,19.375
2023-04-22T15:18:57.638Z,19.25
2023-04-22T15:21:57.611Z,19.25
2023-04-22T15:24:56.895Z,19.125
2023-04-22T15:27:57.759Z,19.125
2023-04-22T15:30:58.346Z,19.062
2023-04-22T15:33:57.386Z,19.0
2023-04-22T15:36:57.408Z,18.937
2023-04-22T15:39:57.328Z,18.875
2023-04-22T15:42:57.083Z,18.75
2023-04-22T15:45:57.169Z,18.687
2023-04-22T15:48:57.862Z,18.75
2023-04-22T15:51:57.236Z,18.625
2023-04-22T15:54:56.830Z,18.625
2023-04-22T15:57:57.159Z,18.562
2023-04-22T16:01:04.426Z,18.5
2023-04-22T16:03:57.837Z,18.5
2023-04-22T16:06:57.269Z,18.312
2023-04-22T16:09:57.904Z,18.312
2023-04-22T16:12:57.324Z,18.062
2023-04-22T16:15:56.990Z,17.937
2023-04-22T16:18:57.686Z,17.812
2023-04-22T16:21:57.043Z,17.75
2023-04-22T16:24:57.650Z,17.75
2023-04-22T16:27:57.740Z,17.562
2023-04-22T16:30:58.263Z,17.375
2023-04-22T16:33:57.778Z,17.187
2023-04-22T16:36:57.479Z,16.937
2023-04-22T16:39:56.780Z,16.625
2023-04-22T16:42:57.413Z,16.312
2023-04-22T16:45:56.851Z,16.187
2023-04-22T16:48:57.132Z,16.25
2023-04-22T16:51:57.951Z,16.312
2023-04-22T16:54:57.164Z,16.25
2023-04-22T16:57:57.229Z,16.25
2023-04-22T17:00:57.322Z,16.312
2023-04-22T17:03:58.209Z,16.375
2023-04-22T17:06:57.267Z,16.437
2023-04-22T17:09:57.669Z,16.562
2023-04-22T17:12:57.826Z,16.562
2023-04-22T17:15:58.130Z,16.562
2023-04-22T17:18:57.292Z,16.562
2023-04-22T17:21:57.232Z,16.687
2023-04-22T17:24:57.530Z,16.437
2023-04-22T17:27:56.893Z,16.312
2023-04-22T17:30:58.136Z,16.625
2023-04-22T17:33:57.738Z,16.625
2023-04-22T17:36:57.281Z,16.687
2023-04-22T17:39:57.674Z,16.812
2023-04-22T17:42:57.709Z,16.75
2023-04-22T17:45:57.494Z,16.625
2023-04-22T17:48:56.917Z,16.625
2023-04-22T17:51:58.197Z,16.625
2023-04-22T17:54:59.358Z,16.687
2023-04-22T17:57:57.392Z,16.5
2023-04-22T18:00:57.734Z,16.437
2023-04-22T18:03:56.902Z,16.375
2023-04-22T18:06:57.392Z,16.5
2023-04-22T18:09:57.354Z,16.437
2023-04-22T18:12:57.537Z,16.437
2023-04-22T18:15:57.772Z,16.5
2023-04-22T18:18:58.054Z,16.375
2023-04-22T18:22:00.474Z,16.437
2023-04-22T18:24:57.045Z,16.187
2023-04-22T18:27:57.173Z,16.187
2023-04-22T18:30:58.045Z,16.375
2023-04-22T18:33:57.704Z,16.375
2023-04-22T18:36:57.660Z,16.187
2023-04-22T18:39:56.986Z,16.187
2023-04-22T18:42:57.916Z,16.312
2023-04-22T18:45:57.901Z,16.187
2023-04-22T18:48:57.993Z,16.187
2023-04-22T18:51:58.337Z,16.125
2023-04-22T18:54:57.877Z,16.062
2023-04-22T18:57:57.555Z,16.062
2023-04-22T19:01:25.698Z,16.062
2023-04-22T19:03:57.147Z,16.062
2023-04-22T19:06:57.715Z,15.812
2023-04-22T19:09:57.542Z,16.187
2023-04-22T19:12:58.251Z,16.125
2023-04-22T19:15:57.660Z,16.125
2023-04-22T19:18:57.338Z,15.812
2023-04-22T19:21:57.175Z,15.812
2023-04-22T19:24:57.190Z,15.625
2023-04-22T19:27:57.731Z,15.437
2023-04-22T19:30:58.395Z,15.437
2023-04-22T19:33:56.723Z,15.25
2023-04-22T19:45:57.072Z,15.187
2023-04-22T19:48:57.386Z,15.187
2023-04-22T19:51:57.172Z,15.187
2023-04-22T19:54:57.224Z,15.187
2023-04-22T19:57:57.740Z,14.937
2023-04-22T20:00:57.997Z,15.062
2023-04-22T20:03:57.912Z,14.875
2023-04-22T20:06:57.795Z,14.875
2023-04-22T20:09:56.952Z,14.687
2023-04-22T20:12:57.302Z,14.75
2023-04-22T20:15:57.581Z,14.562
2023-04-22T20:18:57.384Z,14.437
2023-04-22T20:21:57.125Z,14.25
2023-04-22T20:24:57.564Z,14.25
2023-04-22T20:27:56.993Z,14.125
2023-04-22T20:30:58.310Z,14.062
2023-04-22T20:33:57.577Z,13.812
2023-04-22T20:36:57.192Z,13.75
2023-04-22T20:39:56.990Z,13.75
2023-04-22T20:42:58.179Z,13.625
2023-04-22T20:45:57.942Z,13.625
2023-04-22T20:48:57.276Z,13.625
2023-04-22T20:51:57.137Z,13.375
2023-04-22T20:54:57.273Z,13.437
2023-04-22T20:57:56.877Z,13.312
2023-04-22T21:00:57.972Z,13.25
2023-04-22T21:03:58.003Z,13.125
2023-04-22T21:06:57.645Z,13.125
2023-04-22T21:09:57.808Z,12.875
2023-04-22T21:12:57.081Z,12.75
2023-04-22T21:15:57.202Z,12.687
2023-04-22T21:18:57.506Z,12.625
2023-04-22T21:21:57.192Z,12.625
2023-04-22T21:24:57.071Z,12.562
2023-04-22T21:27:57.896Z,12.562
2023-04-22T21:30:58.137Z,12.5
2023-04-22T21:33:56.945Z,12.5
2023-04-22T21:36:57.505Z,12.5
2023-04-22T21:39:58.008Z,12.5
2023-04-22T21:42:57.429Z,12.437
2023-04-22T21:45:58.057Z,12.375
2023-04-22T21:48:57.661Z,12.375
2023-04-22T21:51:57.289Z,12.312
2023-04-22T21:54:58.236Z,12.312
2023-04-22T21:57:57.904Z,12.312
2023-04-22T22:00:58.224Z,12.312
2023-04-22T22:03:57.563Z,12.375
2023-04-22T22:06:57.084Z,12.312
2023-04-22T22:09:57.957Z,12.25
2023-04-22T22:12:56.814Z,12.375
2023-04-22T22:15:56.876Z,12.375
2023-04-22T22:18:57.519Z,12.437
2023-04-22T22:21:56.910Z,12.312
2023-04-22T22:24:57.559Z,12.375
2023-04-22T22:27:57.198Z,12.312
2023-04-22T22:30:57.653Z,12.375
2023-04-22T22:33:57.476Z,12.312
2023-04-22T22:36:57.041Z,12.312
2023-04-22T22:39:56.633Z,12.312
2023-04-22T22:42:57.265Z,12.187
2023-04-22T22:45:57.627Z,12.187
2023-04-22T22:48:56.820Z,12.062
2023-04-22T22:51:57.332Z,12.062
2023-04-22T22:54:57.291Z,12.125
2023-04-22T22:57:57.068Z,12.187
2023-04-22T23:00:57.382Z,12.187
2023-04-22T23:03:57.371Z,12.187
2023-04-22T23:06:57.242Z,12.5
2023-04-22T23:09:57.371Z,12.75
2023-04-22T23:12:57.201Z,12.562
2023-04-22T23:15:57.501Z,12.75
2023-04-22T23:18:57.336Z,12.75
2023-04-22T23:21:56.921Z,12.562
2023-04-22T23:24:57.253Z,12.75
2023-04-22T23:27:57.782Z,12.75
2023-04-22T23:30:57.624Z,12.625
2023-04-22T23:33:56.908Z,12.687
2023-04-22T23:36:57.373Z,12.687
2023-04-22T23:39:57.548Z,12.687
2023-04-22T23:42:56.870Z,12.562
2023-04-22T23:45:57.443Z,12.625
2023-04-22T23:48:57.016Z,12.625
2023-04-22T23:51:57.775Z,12.437
2023-04-22T23:54:57.499Z,12.437
2023-04-22T23:57:56.793Z,12.625
